createdAt,value
2019-02-20T09:40:21.176Z,11.60
2019-02-20T09:42:50.400Z,10.70
2019-02-20T09:45:19.450Z,10.50
2019-02-20T09:47:48.560Z,10.40
2019-02-20T09:50:17.603Z,10.70
2019-02-20T09:52:52.279Z,10.70
2019-02-20T09:55:17.525Z,10.60
2019-02-20T09:57:46.417Z,10.60
2019-02-20T10:00:15.797Z,10.80
2019-02-20T10:02:44.683Z,10.90
2019-02-20T10:05:13.789Z,11.20
2019-02-20T10:07:42.777Z,11.30
2019-02-20T10:10:11.853Z,11.10
2019-02-20T10:12:40.913Z,11.20
2019-02-20T10:15:11.143Z,11.00
2019-02-20T10:17:40.153Z,10.90
2019-02-20T10:20:09.929Z,10.70
2019-02-20T10:22:38.929Z,10.70
2019-02-20T10:25:08.387Z,10.50
2019-02-20T10:27:37.593Z,10.50
2019-02-20T10:30:09.524Z,10.40
2019-02-20T10:32:38.398Z,10.40
2019-02-20T10:35:07.917Z,10.40
2019-02-20T10:37:36.885Z,10.30
2019-02-20T10:40:06.129Z,10.60
2019-02-20T10:42:35.453Z,10.60
2019-02-20T10:45:04.510Z,10.90
2019-02-20T10:47:33.703Z,11.10
2019-02-20T10:50:03.010Z,11.20
2019-02-20T10:52:31.869Z,11.20
2019-02-20T10:55:00.854Z,11.20
2019-02-20T10:57:29.905Z,11.30
2019-02-20T10:59:58.790Z,11.30
2019-02-20T11:02:27.654Z,11.20
2019-02-20T11:04:56.591Z,11.20
2019-02-20T11:07:25.833Z,11.10
2019-02-20T11:09:55.066Z,11.20
2019-02-20T11:12:24.018Z,11.30
2019-02-20T11:14:52.929Z,11.10
2019-02-20T11:17:21.878Z,11.20
2019-02-20T11:19:50.746Z,11.30
2019-02-20T11:22:20.675Z,11.60
2019-02-20T11:24:49.682Z,11.70
2019-02-20T11:27:19.548Z,11.70
2019-02-20T11:29:48.531Z,11.70
2019-02-20T11:32:17.590Z,11.60
2019-02-20T11:34:46.790Z,11.40
2019-02-20T11:37:15.750Z,11.50
2019-02-20T11:39:44.618Z,11.40
2019-02-20T11:42:13.519Z,11.40
2019-02-20T11:44:42.431Z,11.30
2019-02-20T11:47:11.822Z,11.10
2019-02-20T11:49:41.198Z,11.10
2019-02-20T11:52:10.319Z,11.30
2019-02-20T11:54:39.382Z,11.20
2019-02-20T11:57:08.331Z,11.20
2019-02-20T11:59:37.278Z,11.30
2019-02-20T12:02:06.234Z,11.40
2019-02-20T12:04:35.103Z,11.60
2019-02-20T12:07:05.190Z,11.60
2019-02-20T12:09:34.187Z,11.50
2019-02-20T12:12:03.169Z,11.50
2019-02-20T12:14:32.191Z,11.50
2019-02-20T12:17:01.302Z,11.50
2019-02-20T12:19:30.343Z,11.70
2019-02-20T12:21:59.755Z,11.70
2019-02-20T12:24:29.563Z,11.80
2019-02-20T12:26:58.583Z,11.90
2019-02-20T12:29:27.839Z,12.10
2019-02-20T12:31:56.824Z,12.00
2019-02-20T12:34:25.827Z,11.90
2019-02-20T12:36:55.020Z,11.80
2019-02-20T12:39:23.963Z,11.90
2019-02-20T12:41:52.915Z,12.00
2019-02-20T12:44:21.882Z,12.00
2019-02-20T12:46:50.771Z,11.80
2019-02-20T12:49:19.661Z,11.90
2019-02-20T12:51:48.670Z,12.00
2019-02-20T12:54:18.158Z,12.10
2019-02-20T12:56:47.258Z,12.30
2019-02-20T12:59:16.187Z,12.40
2019-02-20T13:01:45.387Z,12.20
2019-02-20T13:04:14.351Z,12.30
2019-02-20T13:06:43.379Z,12.40
2019-02-20T13:09:13.767Z,12.50
2019-02-20T13:11:43.258Z,12.50
2019-02-20T13:14:12.276Z,12.40
2019-02-20T13:16:41.336Z,12.50
2019-02-20T13:19:10.457Z,12.70
2019-02-20T13:21:39.411Z,12.90
2019-02-20T13:24:08.426Z,12.70
2019-02-20T13:26:37.422Z,12.60
2019-02-20T13:29:06.420Z,12.70
2019-02-20T13:31:35.268Z,12.70
2019-02-20T13:34:04.241Z,12.70
2019-02-20T13:36:33.268Z,12.40
2019-02-20T13:39:02.201Z,12.20
2019-02-20T13:41:31.352Z,12.20
2019-02-20T13:44:00.712Z,12.40
2019-02-20T13:46:30.177Z,12.50
2019-02-20T13:48:59.160Z,12.60
2019-02-20T13:51:28.092Z,12.80
2019-02-20T13:53:57.185Z,12.90
2019-02-20T13:56:26.149Z,12.90
2019-02-20T13:58:55.349Z,13.00
2019-02-20T14:01:52.466Z,12.90
2019-02-20T14:05:11.364Z,12.60
2019-02-20T14:07:49.716Z,12.40
2019-02-20T14:10:20.370Z,12.60
2019-02-20T14:12:52.693Z,12.60
2019-02-20T14:15:47.247Z,12.60
2019-02-20T14:18:21.176Z,12.40
2019-02-20T14:21:03.437Z,12.50
2019-02-20T14:23:33.869Z,12.40
2019-02-20T14:26:12.534Z,12.50
2019-02-20T14:28:59.417Z,12.80
2019-02-20T14:31:35.569Z,12.80
2019-02-20T14:34:12.921Z,12.60
2019-02-20T14:36:47.849Z,12.60
2019-02-20T14:39:20.997Z,12.40
2019-02-20T14:41:52.985Z,12.30
2019-02-20T14:44:24.033Z,12.20
2019-02-20T14:47:02.881Z,12.20
2019-02-20T14:49:33.133Z,12.10
2019-02-20T14:52:09.938Z,12.10
2019-02-20T14:54:40.145Z,12.00
2019-02-20T14:57:21.062Z,12.00
2019-02-20T14:59:56.285Z,11.90
2019-02-20T15:02:33.082Z,12.00
2019-02-20T15:05:23.558Z,12.00
2019-02-20T15:08:02.115Z,12.10
2019-02-20T15:10:43.646Z,12.10
2019-02-20T15:13:20.450Z,12.00
2019-02-20T15:15:55.218Z,11.90
2019-02-20T15:18:29.654Z,11.90
2019-02-20T15:21:02.549Z,11.90
2019-02-20T15:23:31.638Z,11.80
2019-02-20T15:26:02.870Z,11.80
2019-02-20T15:28:33.606Z,11.90
2019-02-20T15:31:02.534Z,12.00
2019-02-20T15:33:31.551Z,12.00
2019-02-20T15:36:00.495Z,11.90
2019-02-20T15:38:30.433Z,11.80
2019-02-20T15:43:59.150Z,11.90
2019-02-20T15:46:14.242Z,11.90
2019-02-20T15:48:46.647Z,11.90
2019-02-20T15:51:24.094Z,11.90
2019-02-20T15:53:57.933Z,11.80
2019-02-20T15:56:33.586Z,11.90
2019-02-20T15:59:06.377Z,11.80
2019-02-20T16:01:53.943Z,11.80
2019-02-20T16:10:48.215Z,11.70
2019-02-20T16:16:06.963Z,11.60
2019-02-20T16:18:36.903Z,11.50
2019-02-20T16:21:08.904Z,11.50
2019-02-20T16:24:01.943Z,11.40
2019-02-20T16:26:31.839Z,11.40
2019-02-20T16:29:00.927Z,11.30
2019-02-20T16:31:34.056Z,11.20
2019-02-20T16:38:05.236Z,11.30
2019-02-20T16:41:33.244Z,11.30
2019-02-20T16:44:20.916Z,11.30
2019-02-20T16:50:34.563Z,11.20
2019-02-20T16:53:03.651Z,11.20
2019-02-20T16:55:50.663Z,11.10
2019-02-20T16:58:53.380Z,11.10
2019-02-20T17:01:24.571Z,11.10
2019-02-20T17:03:53.711Z,11.10
2019-02-20T17:06:26.191Z,11.20
2019-02-20T17:08:55.931Z,11.20
2019-02-20T17:11:27.851Z,11.30
2019-02-20T17:13:58.191Z,11.30
2019-02-20T17:16:27.423Z,11.20
2019-02-20T17:18:57.467Z,11.20
2019-02-20T17:21:42.215Z,11.10
2019-02-20T17:24:12.578Z,11.10
2019-02-20T17:26:53.687Z,11.00
2019-02-20T17:29:24.095Z,11.00
2019-02-20T17:31:56.843Z,11.00
